Time;durP1;ratioP1;P1;durP2;ratioP2;P2;SDS_P1;SDS_P2;PMS_P1;PMS_P2;Temp;Humidity;BMP_temperature;BMP_pressure;BME280_temperature;BME280_humidity;BME280_pressure;Samples;Min_cycle;Max_cycle;Signal;HPM_P1;HPM_P2
2021/07/03 00:02:08;;;;;;;9.27;8.43;;;14.30;99.90;;;;;;4995532;28;20192;-95
2021/07/03 00:04:34;;;;;;;10.63;8.60;;;14.20;99.90;;;;;;4979113;28;20200;-94
2021/07/03 00:06:59;;;;;;;9.70;8.70;;;14.20;99.90;;;;;;4977221;28;20851;-95
2021/07/03 00:09:25;;;;;;;10.27;8.80;;;14.20;99.90;;;;;;4975533;28;20247;-95
2021/07/03 00:29:56;;;;;;;10.23;9.23;;;14.30;99.90;;;;;;4982600;28;20504;-96
2021/07/03 00:32:40;;;;;;;11.20;9.13;;;14.10;99.90;;;;;;4987328;28;20528;-96
2021/07/03 00:35:20;;;;;;;10.70;9.13;;;14.00;99.90;;;;;;4989533;28;20525;-96
2021/07/03 00:37:52;;;;;;;11.23;9.53;;;14.00;99.90;;;;;;4998099;28;20513;-95
2021/07/03 00:40:30;;;;;;;9.60;8.20;;;14.00;99.90;;;;;;4977501;28;20522;-96
2021/07/03 00:42:56;;;;;;;9.37;8.37;;;14.00;99.90;;;;;;5000138;28;20457;-96
2021/07/03 00:48:01;;;;;;;11.13;8.73;;;13.80;99.90;;;;;;4987175;28;20439;-96
2021/07/03 00:50:28;;;;;;;9.93;8.63;;;13.70;99.90;;;;;;4989095;28;20442;-96
2021/07/03 00:52:56;;;;;;;9.77;8.87;;;13.50;99.90;;;;;;4990045;28;20480;-96
2021/07/03 00:55:22;;;;;;;14.03;8.97;;;13.50;99.90;;;;;;4973425;28;20459;-91
2021/07/03 00:57:48;;;;;;;9.83;8.87;;;13.50;99.90;;;;;;4969083;28;20979;-90
2021/07/03 01:00:15;;;;;;;10.10;9.10;;;13.50;99.90;;;;;;4968355;28;20190;-91
2021/07/03 01:02:41;;;;;;;8.63;7.73;;;13.40;99.90;;;;;;4952549;28;20543;-90
2021/07/03 01:05:07;;;;;;;9.40;8.30;;;13.40;99.90;;;;;;4954158;28;20449;-91
2021/07/03 01:07:34;;;;;;;10.60;8.70;;;13.40;99.90;;;;;;4958469;28;20183;-91
2021/07/03 01:10:00;;;;;;;9.07;8.27;;;13.30;99.90;;;;;;4973352;28;20894;-90
2021/07/03 01:12:25;;;;;;;8.03;7.20;;;13.30;99.90;;;;;;4956260;28;20524;-92
2021/07/03 01:14:51;;;;;;;9.53;8.53;;;13.20;99.90;;;;;;4956609;28;20493;-92
2021/07/03 01:17:17;;;;;;;10.20;8.97;;;13.10;99.90;;;;;;4955567;28;20204;-95
2021/07/03 01:19:45;;;;;;;10.80;8.77;;;13.00;99.90;;;;;;4958652;28;20214;-94
2021/07/03 01:22:13;;;;;;;10.10;9.17;;;13.00;99.90;;;;;;4958993;28;20955;-95
2021/07/03 01:24:44;;;;;;;9.90;8.70;;;13.10;99.90;;;;;;4975049;28;20541;-96
2021/07/03 01:27:12;;;;;;;9.00;7.77;;;13.00;99.90;;;;;;4961428;28;20508;-93
2021/07/03 01:29:48;;;;;;;11.30;9.90;;;13.00;99.90;;;;;;4960038;28;20481;-95
2021/07/03 01:32:15;;;;;;;10.20;9.10;;;13.00;99.90;;;;;;4977324;28;20802;-94
2021/07/03 01:34:46;;;;;;;10.63;9.53;;;13.00;99.90;;;;;;4962306;28;20464;-96
2021/07/03 01:37:15;;;;;;;10.13;9.10;;;13.00;99.90;;;;;;4957801;28;20442;-96
2021/07/03 01:39:41;;;;;;;10.50;9.33;;;13.00;99.90;;;;;;4958456;28;20846;-96
2021/07/03 01:42:10;;;;;;;9.13;8.30;;;13.00;99.90;;;;;;4962425;28;20186;-96
2021/07/03 01:44:38;;;;;;;9.30;8.00;;;12.90;99.90;;;;;;4958453;28;20204;-95
2021/07/03 01:47:04;;;;;;;10.33;9.20;;;12.80;99.90;;;;;;4959029;28;20453;-94
2021/07/03 01:49:43;;;;;;;10.43;9.20;;;12.80;99.90;;;;;;4957541;28;20485;-96
2021/07/03 01:52:09;;;;;;;11.77;9.70;;;12.70;99.90;;;;;;4961389;28;20480;-94
2021/07/03 01:54:36;;;;;;;12.10;9.50;;;12.90;99.90;;;;;;4971297;28;20531;-95
2021/07/03 01:57:02;;;;;;;11.10;10.00;;;13.00;99.90;;;;;;4953449;28;20288;-96
2021/07/03 01:59:46;;;;;;;10.57;9.57;;;13.30;99.90;;;;;;4957220;28;20449;-94
2021/07/03 02:02:26;;;;;;;10.43;9.33;;;13.30;99.90;;;;;;4976966;28;20504;-95
2021/07/03 02:05:06;;;;;;;12.07;9.70;;;13.40;99.90;;;;;;4957891;28;20446;-95
2021/07/03 02:07:52;;;;;;;10.13;9.10;;;13.30;99.90;;;;;;4955401;28;20475;-94
2021/07/03 02:10:21;;;;;;;10.27;9.17;;;13.40;99.90;;;;;;4960343;28;20485;-95
2021/07/03 02:12:56;;;;;;;10.20;8.93;;;13.40;99.90;;;;;;4959419;28;20210;-94
2021/07/03 02:15:22;;;;;;;10.70;9.70;;;13.50;99.90;;;;;;4959445;28;20532;-94
2021/07/03 02:17:47;;;;;;;11.30;10.07;;;13.30;99.90;;;;;;4961343;28;20198;-94
2021/07/03 02:20:16;;;;;;;11.60;10.40;;;13.10;99.90;;;;;;4962549;28;20200;-95
2021/07/03 02:22:45;;;;;;;10.23;9.10;;;13.00;99.90;;;;;;4976070;28;20210;-95
2021/07/03 02:25:17;;;;;;;12.53;10.67;;;12.90;99.90;;;;;;4961698;28;20453;-95
2021/07/03 02:27:50;;;;;;;13.07;10.57;;;12.80;99.90;;;;;;4978210;28;20980;-93
2021/07/03 02:30:17;;;;;;;13.07;10.40;;;12.90;99.90;;;;;;4962425;28;20936;-94
2021/07/03 02:32:52;;;;;;;11.60;10.40;;;12.90;99.90;;;;;;4959213;28;20538;-94
2021/07/03 02:35:26;;;;;;;16.70;10.87;;;12.90;99.90;;;;;;4962037;28;20556;-94
2021/07/03 02:37:52;;;;;;;13.13;10.87;;;13.00;99.90;;;;;;4978541;28;20457;-94
2021/07/03 02:40:21;;;;;;;13.57;10.60;;;12.90;99.90;;;;;;4959004;28;20471;-95
2021/07/03 02:42:50;;;;;;;12.60;10.73;;;13.00;99.90;;;;;;4976516;28;20519;-95
2021/07/03 02:45:17;;;;;;;12.20;10.40;;;12.90;99.90;;;;;;4976940;28;20485;-95
2021/07/03 02:47:56;;;;;;;14.30;10.53;;;12.90;99.90;;;;;;4971064;28;20952;-95
2021/07/03 02:50:23;;;;;;;12.30;11.00;;;12.70;99.90;;;;;;4962263;28;20493;-95
2021/07/03 02:52:49;;;;;;;11.27;9.93;;;12.80;99.90;;;;;;4975961;28;20936;-95
2021/07/03 02:55:17;;;;;;;11.73;10.00;;;12.80;99.90;;;;;;4972547;28;20470;-95
2021/07/03 02:57:43;;;;;;;11.10;9.80;;;12.80;99.90;;;;;;4974199;28;20446;-95
2021/07/03 03:00:14;;;;;;;13.40;10.87;;;12.70;99.90;;;;;;4978363;28;20467;-96
2021/07/03 03:02:52;;;;;;;12.90;10.13;;;12.60;99.90;;;;;;4992077;28;20213;-96
2021/07/03 03:05:20;;;;;;;11.93;10.73;;;12.60;99.90;;;;;;4968209;28;20509;-96
2021/07/03 03:07:49;;;;;;;12.83;10.63;;;12.60;99.90;;;;;;4963913;28;20554;-96
2021/07/03 03:10:26;;;;;;;11.37;9.77;;;12.60;99.90;;;;;;4987267;28;20505;-96
2021/07/03 03:12:52;;;;;;;11.50;10.27;;;12.60;99.90;;;;;;4998706;28;20197;-94
2021/07/03 03:15:18;;;;;;;14.07;10.33;;;12.60;99.90;;;;;;4960326;28;20557;-96
2021/07/03 03:17:45;;;;;;;12.03;9.77;;;12.60;99.90;;;;;;4985749;28;20445;-96
2021/07/03 03:20:12;;;;;;;11.87;10.00;;;12.70;99.90;;;;;;4983644;28;20545;-93
2021/07/03 03:22:39;;;;;;;11.47;10.33;;;12.70;99.90;;;;;;4973045;28;20469;-92
2021/07/03 03:25:06;;;;;;;12.63;10.47;;;12.80;99.90;;;;;;4960041;28;20500;-93
2021/07/03 03:27:32;;;;;;;12.30;10.97;;;12.70;99.90;;;;;;4979057;28;20536;-94
2021/07/03 03:29:58;;;;;;;12.60;10.47;;;12.60;99.90;;;;;;4956912;28;21042;-93
2021/07/03 03:32:23;;;;;;;11.73;10.60;;;12.60;99.90;;;;;;4975116;28;20460;-96
2021/07/03 03:35:11;;;;;;;12.27;10.50;;;12.50;99.90;;;;;;4959194;28;20191;-94
2021/07/03 03:37:37;;;;;;;10.80;9.70;;;12.60;99.90;;;;;;4977508;28;20248;-96
2021/07/03 04:26:40;;;;;;;11.00;9.90;;;13.00;99.90;;;;;;4937155;28;20482;-96
2021/07/03 04:29:09;;;;;;;12.20;10.47;;;12.90;99.90;;;;;;4957742;29;20490;-96
2021/07/03 04:34:39;;;;;;;11.10;10.00;;;12.90;99.90;;;;;;4951935;28;20450;-96
2021/07/03 04:37:10;;;;;;;12.33;9.93;;;12.80;99.90;;;;;;4944491;28;20560;-96
2021/07/03 04:39:39;;;;;;;13.00;10.50;;;12.80;99.90;;;;;;4956804;28;20985;-96
2021/07/03 04:42:04;;;;;;;11.43;9.97;;;12.80;99.90;;;;;;4938438;28;20290;-94
2021/07/03 04:44:30;;;;;;;11.20;10.10;;;13.00;99.90;;;;;;4951724;28;21051;-95
2021/07/03 04:46:57;;;;;;;11.87;9.50;;;13.10;99.90;;;;;;4939500;28;20277;-96
2021/07/03 04:49:22;;;;;;;12.93;10.70;;;13.10;99.90;;;;;;4942919;28;20518;-96
2021/07/03 04:51:48;;;;;;;12.87;10.50;;;13.10;99.90;;;;;;4942924;28;20533;-96
2021/07/03 04:54:14;;;;;;;13.50;10.90;;;13.00;99.90;;;;;;4957450;28;20209;-96
2021/07/03 04:56:40;;;;;;;11.77;10.57;;;13.10;99.90;;;;;;4959886;28;20205;-96
2021/07/03 04:59:05;;;;;;;12.93;11.23;;;13.20;99.90;;;;;;4954716;28;20190;-96
2021/07/03 05:01:31;;;;;;;12.40;11.10;;;13.20;99.90;;;;;;4949167;28;20249;-95
2021/07/03 05:53:07;;;;;;;12.40;10.87;;;14.70;99.90;;;;;;4993386;28;20986;-96
2021/07/03 05:55:33;;;;;;;11.07;10.07;;;14.70;99.90;;;;;;4981394;28;20826;-96
2021/07/03 05:57:59;;;;;;;12.33;10.80;;;14.70;99.90;;;;;;4978154;28;21258;-93
2021/07/03 06:00:25;;;;;;;11.50;10.30;;;14.90;99.90;;;;;;4978729;28;20282;-90
2021/07/03 06:02:51;;;;;;;11.60;10.40;;;15.10;99.90;;;;;;4996875;28;20541;-95
2021/07/03 06:05:16;;;;;;;10.50;9.50;;;15.10;99.90;;;;;;4978712;28;20213;-95
2021/07/03 06:10:42;;;;;;;11.63;10.43;;;15.40;99.90;;;;;;4980848;28;20463;-95
2021/07/03 06:13:08;;;;;;;11.60;10.50;;;15.50;99.90;;;;;;4980618;28;20428;-95
2021/07/03 06:15:34;;;;;;;11.20;10.10;;;15.60;99.90;;;;;;5001808;28;20194;-96
2021/07/03 06:17:59;;;;;;;11.43;10.23;;;15.80;99.90;;;;;;4976685;28;20189;-93
2021/07/03 06:20:25;;;;;;;11.97;10.60;;;15.90;99.90;;;;;;4975761;28;20185;-92
2021/07/03 06:22:51;;;;;;;12.97;11.60;;;15.70;99.90;;;;;;4980515;28;20189;-93
2021/07/03 06:25:25;;;;;;;11.93;10.43;;;15.70;99.90;;;;;;4976801;28;20197;-92
2021/07/03 06:27:50;;;;;;;11.67;10.47;;;15.70;99.90;;;;;;4982980;28;20201;-96
2021/07/03 06:30:17;;;;;;;12.10;10.17;;;16.00;99.90;;;;;;4979710;28;20518;-93
2021/07/03 06:32:43;;;;;;;13.40;10.03;;;16.00;99.90;;;;;;4999600;28;20302;-95
2021/07/03 06:35:09;;;;;;;11.67;10.47;;;16.00;99.90;;;;;;5000302;28;20507;-94
2021/07/03 06:37:38;;;;;;;10.30;9.30;;;16.10;99.90;;;;;;4981770;28;20193;-92
2021/07/03 06:40:04;;;;;;;10.60;9.60;;;16.30;99.90;;;;;;4982696;28;20871;-94
2021/07/03 06:42:30;;;;;;;10.67;9.50;;;16.50;99.90;;;;;;4980581;28;20233;-92
2021/07/03 06:44:57;;;;;;;10.10;9.10;;;16.50;99.90;;;;;;4992925;28;20451;-95
2021/07/03 06:47:23;;;;;;;9.93;8.97;;;16.50;99.90;;;;;;4990380;28;20893;-96
2021/07/03 06:49:49;;;;;;;9.87;8.70;;;16.70;99.90;;;;;;4990844;28;20516;-96
2021/07/03 06:52:20;;;;;;;8.73;7.83;;;16.90;99.90;;;;;;4982347;28;20460;-94
2021/07/03 06:54:45;;;;;;;9.37;8.10;;;17.10;99.90;;;;;;5007720;28;20452;-95
2021/07/03 06:57:12;;;;;;;9.00;8.07;;;17.40;99.90;;;;;;5007476;28;20208;-94
2021/07/03 07:02:30;;;;;;;9.73;8.73;;;17.40;99.90;;;;;;4964096;28;21022;-94
2021/07/03 07:04:56;;;;;;;10.17;8.60;;;17.70;99.90;;;;;;4990405;28;20445;-95
2021/07/03 07:07:24;;;;;;;9.27;8.37;;;17.80;99.90;;;;;;4976569;28;20477;-96
2021/07/03 07:27:52;;;;;;;8.40;7.50;;;18.70;99.90;;;;;;4953902;28;20498;-92
2021/07/03 07:30:19;;;;;;;9.13;8.33;;;18.70;99.90;;;;;;4955096;28;22386;-94
2021/07/03 07:32:46;;;;;;;9.97;8.97;;;18.70;99.90;;;;;;4970824;28;20185;-93
2021/07/03 07:35:13;;;;;;;10.00;9.00;;;18.80;99.90;;;;;;4954822;28;21799;-91
2021/07/03 07:37:38;;;;;;;9.90;9.00;;;18.90;99.90;;;;;;4956543;28;20441;-94
2021/07/03 07:42:38;;;;;;;8.53;7.73;;;18.90;99.90;;;;;;4990395;23;20494;-96
2021/07/03 07:45:04;;;;;;;8.63;7.73;;;18.90;99.90;;;;;;4954729;28;20455;-95
2021/07/03 07:47:34;;;;;;;9.07;8.17;;;19.10;99.90;;;;;;4949500;28;20493;-96
2021/07/03 07:50:00;;;;;;;9.50;7.93;;;19.20;99.90;;;;;;4954993;28;20493;-93
2021/07/03 07:52:26;;;;;;;8.40;7.57;;;19.20;99.90;;;;;;4949982;28;20415;-94
2021/07/03 07:54:51;;;;;;;8.30;7.50;;;19.30;99.90;;;;;;4943564;28;20195;-95
2021/07/03 07:57:23;;;;;;;8.37;7.47;;;19.30;99.90;;;;;;4960466;28;20658;-96
2021/07/03 07:59:49;;;;;;;9.40;8.40;;;19.40;99.90;;;;;;4956879;28;20215;-94
2021/07/03 08:02:15;;;;;;;12.63;8.43;;;19.60;99.90;;;;;;4960650;28;20985;-94
2021/07/03 08:04:41;;;;;;;9.83;8.00;;;19.70;99.90;;;;;;4961421;28;20470;-96
2021/07/03 08:07:13;;;;;;;8.20;7.60;;;19.90;99.90;;;;;;4951928;28;20220;-96
2021/07/03 08:09:39;;;;;;;9.20;7.63;;;20.10;99.90;;;;;;4955044;28;20486;-92
2021/07/03 08:12:04;;;;;;;8.63;7.83;;;20.30;99.90;;;;;;4937158;28;20461;-94
2021/07/03 08:14:31;;;;;;;7.67;6.97;;;20.50;99.90;;;;;;4989492;23;20245;-96
2021/07/03 08:17:03;;;;;;;9.50;8.00;;;20.60;99.90;;;;;;5048238;23;20234;-96
2021/07/03 08:19:29;;;;;;;7.57;6.87;;;20.60;99.90;;;;;;4943635;28;20454;-94
2021/07/03 08:21:58;;;;;;;8.77;7.03;;;20.70;99.90;;;;;;4952876;28;20446;-96
2021/07/03 08:24:24;;;;;;;8.70;7.00;;;20.90;99.90;;;;;;4940462;28;20249;-93
2021/07/03 08:26:50;;;;;;;8.00;7.23;;;20.90;99.90;;;;;;4934419;28;20450;-94
2021/07/03 08:29:16;;;;;;;8.83;7.50;;;21.20;99.90;;;;;;4940199;28;20482;-94
2021/07/03 08:31:42;;;;;;;8.30;7.37;;;21.30;99.90;;;;;;4940082;28;20249;-94
2021/07/03 08:34:13;;;;;;;8.33;7.57;;;21.50;99.90;;;;;;4946249;28;20219;-96
2021/07/03 08:36:41;;;;;;;7.93;7.30;;;21.70;99.90;;;;;;4950345;28;20828;-96
2021/07/03 08:39:06;;;;;;;7.37;6.73;;;21.90;99.90;;;;;;4955243;28;21510;-94
2021/07/03 08:41:34;;;;;;;7.47;6.77;;;21.90;99.90;;;;;;4946469;28;20534;-96
2021/07/03 08:46:36;;;;;;;7.70;7.00;;;22.10;99.90;;;;;;4991272;23;21653;-95
2021/07/03 08:49:07;;;;;;;8.83;8.00;;;21.90;99.90;;;;;;4954692;28;20513;-94
2021/07/03 08:51:48;;;;;;;7.40;6.80;;;21.90;99.90;;;;;;4938841;28;20481;-94
2021/07/03 08:54:20;;;;;;;7.80;7.10;;;22.00;99.90;;;;;;4973051;28;20925;-96
2021/07/03 08:56:48;;;;;;;6.60;6.10;;;22.00;99.90;;;;;;4959622;28;20459;-96
2021/07/03 08:59:20;;;;;;;7.00;6.40;;;22.20;99.30;;;;;;4949411;28;20438;-96
2021/07/03 09:01:51;;;;;;;6.03;5.53;;;22.30;96.30;;;;;;4956962;28;21901;-93
2021/07/03 09:04:16;;;;;;;7.00;6.40;;;22.50;97.30;;;;;;4947068;28;20545;-96
2021/07/03 09:06:50;;;;;;;6.97;6.37;;;22.60;97.70;;;;;;4945621;28;20545;-96
2021/07/03 09:16:59;;;;;;;6.53;5.90;;;22.10;96.00;;;;;;4934561;28;20498;-92
2021/07/03 09:19:35;;;;;;;6.80;6.20;;;22.00;96.70;;;;;;4935240;28;20550;-93
2021/07/03 09:22:01;;;;;;;5.90;5.40;;;22.10;95.70;;;;;;4942079;28;20451;-91
2021/07/03 09:24:31;;;;;;;6.27;5.77;;;22.40;95.10;;;;;;4937969;28;20442;-92
2021/07/03 09:27:00;;;;;;;6.63;6.10;;;22.50;94.20;;;;;;4952871;28;20186;-96
2021/07/03 09:29:26;;;;;;;6.97;6.37;;;22.90;94.80;;;;;;4944135;28;20489;-92
2021/07/03 09:31:54;;;;;;;7.03;6.17;;;22.80;95.10;;;;;;4946861;28;20439;-94
2021/07/03 09:34:23;;;;;;;6.40;5.90;;;23.00;94.80;;;;;;4937762;28;20636;-91
2021/07/03 09:36:49;;;;;;;6.73;6.23;;;23.20;94.40;;;;;;4949465;28;20886;-96
2021/07/03 09:39:25;;;;;;;6.30;5.80;;;23.30;94.00;;;;;;4956215;28;20747;-94
2021/07/03 09:41:51;;;;;;;5.97;5.40;;;23.30;93.90;;;;;;4955916;28;20470;-94
2021/07/03 09:44:26;;;;;;;6.27;5.77;;;23.50;93.70;;;;;;4941765;28;20485;-96
2021/07/03 09:46:56;;;;;;;6.43;5.93;;;23.70;93.40;;;;;;4950908;28;20681;-94
2021/07/03 09:49:28;;;;;;;6.20;5.17;;;23.10;92.40;;;;;;4934748;28;20489;-94
2021/07/03 09:51:56;;;;;;;6.50;6.00;;;22.90;91.70;;;;;;4929251;28;20963;-94
2021/07/03 09:54:28;;;;;;;5.30;4.90;;;22.50;93.60;;;;;;4952941;28;20470;-94
2021/07/03 09:57:00;;;;;;;6.07;5.57;;;22.40;93.70;;;;;;4951689;28;20508;-96
2021/07/03 09:59:28;;;;;;;6.60;6.00;;;22.70;91.90;;;;;;4957467;28;20521;-96
2021/07/03 10:01:54;;;;;;;5.93;5.43;;;22.80;93.70;;;;;;4953622;28;20465;-95
2021/07/03 10:04:22;;;;;;;6.27;5.77;;;22.90;92.80;;;;;;4951646;28;21084;-95
2021/07/03 10:07:06;;;;;;;5.60;5.20;;;23.20;93.50;;;;;;4937967;28;20266;-96
2021/07/03 10:09:36;;;;;;;6.10;5.60;;;23.70;92.50;;;;;;4965211;28;20501;-94
2021/07/03 10:12:30;;;;;;;5.60;5.20;;;24.10;90.30;;;;;;4949251;28;20505;-93
2021/07/03 10:14:56;;;;;;;9.10;8.20;;;24.10;90.30;;;;;;4921479;28;20481;-92
2021/07/03 10:17:23;;;;;;;7.27;6.67;;;23.90;87.60;;;;;;4934150;28;20492;-92
2021/07/03 10:19:50;;;;;;;6.10;5.57;;;24.10;90.90;;;;;;4950979;28;20476;-92
2021/07/03 10:22:29;;;;;;;9.80;7.47;;;24.40;90.60;;;;;;4945473;28;20998;-92
2021/07/03 10:24:57;;;;;;;5.97;5.47;;;24.50;93.00;;;;;;4933168;28;20461;-92
2021/07/03 10:27:24;;;;;;;5.70;5.20;;;24.50;93.80;;;;;;4947589;28;20467;-92
2021/07/03 10:29:52;;;;;;;5.60;5.20;;;24.60;90.40;;;;;;4950749;28;20485;-91
2021/07/03 10:32:29;;;;;;;5.30;4.90;;;24.60;87.20;;;;;;4933865;28;20485;-92
2021/07/03 10:35:07;;;;;;;5.50;5.00;;;24.80;89.80;;;;;;4952409;28;21066;-91
2021/07/03 10:37:34;;;;;;;6.10;5.60;;;25.20;88.40;;;;;;4931734;28;21036;-92
2021/07/03 10:40:01;;;;;;;5.53;5.13;;;25.40;88.30;;;;;;4935236;28;20525;-92
2021/07/03 10:42:32;;;;;;;5.30;4.90;;;25.40;86.10;;;;;;4951608;28;20439;-90
2021/07/03 10:45:12;;;;;;;5.07;4.77;;;24.80;83.80;;;;;;4934461;28;21325;-93
2021/07/03 10:47:39;;;;;;;5.23;4.83;;;24.80;87.90;;;;;;4948392;28;20850;-92
2021/07/03 10:50:21;;;;;;;5.10;4.70;;;24.80;83.20;;;;;;4930634;28;20482;-92
2021/07/03 10:52:47;;;;;;;5.63;5.13;;;24.80;80.50;;;;;;4949808;28;20501;-92
2021/07/03 10:55:12;;;;;;;4.60;4.30;;;24.70;81.50;;;;;;4947205;28;20453;-91
2021/07/03 10:57:43;;;;;;;4.60;4.30;;;25.00;82.40;;;;;;4949235;28;21186;-92
2021/07/03 11:00:11;;;;;;;5.20;4.33;;;25.20;81.80;;;;;;4932325;28;20221;-92
2021/07/03 11:02:37;;;;;;;4.70;4.30;;;25.40;78.70;;;;;;4932068;28;20450;-91
2021/07/03 11:05:14;;;;;;;4.47;4.07;;;25.40;77.50;;;;;;4946594;28;20447;-92
2021/07/03 11:07:42;;;;;;;4.77;4.47;;;25.50;72.00;;;;;;4934307;28;20842;-93
2021/07/03 11:10:11;;;;;;;4.13;3.83;;;25.40;74.60;;;;;;4937915;28;20474;-92
2021/07/03 11:12:47;;;;;;;5.20;4.73;;;25.50;72.80;;;;;;4932692;28;21298;-92
2021/07/03 11:15:15;;;;;;;5.00;4.60;;;25.70;82.50;;;;;;4943090;28;20469;-91
2021/07/03 11:18:04;;;;;;;5.00;4.40;;;25.70;86.10;;;;;;4916434;28;20501;-93
2021/07/03 11:20:33;;;;;;;4.93;4.60;;;25.90;77.10;;;;;;4912926;28;20980;-92
2021/07/03 11:23:02;;;;;;;5.53;4.80;;;25.80;74.90;;;;;;4934178;28;20481;-91
2021/07/03 11:25:37;;;;;;;5.27;4.80;;;26.10;74.10;;;;;;4946883;28;20450;-92
2021/07/03 11:28:25;;;;;;;5.07;4.67;;;26.30;72.20;;;;;;4929791;28;20457;-92
2021/07/03 11:30:59;;;;;;;5.00;4.70;;;25.90;73.30;;;;;;4945705;28;20812;-92
2021/07/03 11:33:32;;;;;;;5.17;4.73;;;25.70;74.50;;;;;;4930543;28;20445;-90
2021/07/03 11:35:58;;;;;;;5.23;4.83;;;26.00;74.80;;;;;;4932269;28;21442;-86
2021/07/03 11:38:26;;;;;;;6.20;5.67;;;26.20;81.30;;;;;;4948287;28;20485;-89
2021/07/03 11:41:00;;;;;;;4.47;4.17;;;26.50;74.70;;;;;;4946294;28;20449;-88
2021/07/03 11:43:29;;;;;;;4.40;4.10;;;26.80;72.60;;;;;;4942846;28;20450;-88
2021/07/03 11:45:56;;;;;;;5.00;4.60;;;27.10;70.60;;;;;;4945584;28;20560;-91
2021/07/03 11:48:24;;;;;;;4.80;4.40;;;27.20;73.00;;;;;;4927805;28;20439;-85
2021/07/03 11:50:58;;;;;;;4.60;4.27;;;27.10;66.30;;;;;;4932536;28;20445;-83
2021/07/03 11:53:32;;;;;;;4.30;3.97;;;26.30;64.40;;;;;;4936024;28;20438;-86
2021/07/03 11:56:00;;;;;;;4.37;4.03;;;25.80;65.60;;;;;;4934637;28;20473;-86
2021/07/03 11:58:28;;;;;;;4.20;3.90;;;26.00;65.80;;;;;;4947341;28;20435;-88
2021/07/03 12:01:06;;;;;;;4.80;4.50;;;26.30;62.50;;;;;;4934464;28;20459;-89
2021/07/03 12:03:37;;;;;;;4.63;4.33;;;26.20;63.00;;;;;;4935956;28;20480;-87
2021/07/03 12:06:06;;;;;;;4.90;4.60;;;26.50;64.60;;;;;;4952569;28;20549;-87
2021/07/03 12:08:47;;;;;;;4.27;3.90;;;26.80;61.80;;;;;;4937500;28;20603;-86
2021/07/03 12:11:15;;;;;;;4.50;4.20;;;26.90;66.00;;;;;;4953996;28;20446;-87
2021/07/03 12:13:52;;;;;;;5.40;5.00;;;27.40;62.60;;;;;;4951513;28;20454;-87
2021/07/03 12:16:20;;;;;;;4.90;4.50;;;27.20;73.80;;;;;;4951505;28;20589;-87
2021/07/03 12:18:53;;;;;;;4.33;4.00;;;27.50;72.60;;;;;;4936834;28;20513;-87
2021/07/03 12:21:23;;;;;;;4.60;4.23;;;27.40;69.00;;;;;;4953414;28;20556;-87
2021/07/03 12:23:49;;;;;;;5.07;4.70;;;27.60;68.40;;;;;;4950931;28;20451;-87
2021/07/03 12:26:31;;;;;;;4.53;4.23;;;27.70;62.00;;;;;;4953505;28;20551;-86
2021/07/03 12:29:04;;;;;;;4.87;4.57;;;27.70;60.00;;;;;;4939364;28;20673;-87
2021/07/03 12:31:38;;;;;;;4.33;4.03;;;27.60;65.10;;;;;;4952365;28;20485;-87
2021/07/03 12:34:07;;;;;;;4.90;4.50;;;27.50;72.40;;;;;;4956917;28;20513;-87
2021/07/03 12:36:34;;;;;;;5.00;4.60;;;27.60;65.70;;;;;;4952523;28;20494;-87
2021/07/03 12:39:15;;;;;;;4.63;4.33;;;27.90;68.30;;;;;;4954494;28;20443;-87
2021/07/03 12:41:44;;;;;;;4.70;4.30;;;28.00;62.20;;;;;;4949918;28;20814;-86
2021/07/03 12:44:09;;;;;;;4.90;4.50;;;27.90;60.50;;;;;;4934064;28;20806;-85
2021/07/03 12:46:37;;;;;;;4.90;4.60;;;27.20;60.30;;;;;;4952260;28;20458;-87
2021/07/03 12:49:05;;;;;;;4.33;4.03;;;27.40;59.20;;;;;;4949709;28;20218;-86
2021/07/03 12:51:40;;;;;;;4.57;4.23;;;27.50;63.40;;;;;;4953774;28;20446;-87
2021/07/03 12:54:07;;;;;;;4.50;4.20;;;27.00;59.90;;;;;;4949667;28;20449;-87
2021/07/03 12:56:34;;;;;;;5.20;4.10;;;26.90;60.90;;;;;;4936705;28;20532;-87
2021/07/03 12:59:05;;;;;;;5.20;4.80;;;27.60;58.00;;;;;;4952940;28;21213;-86
2021/07/03 13:01:33;;;;;;;4.73;4.43;;;27.30;57.80;;;;;;4951190;28;20458;-84
2021/07/03 13:04:00;;;;;;;4.70;4.37;;;27.00;60.20;;;;;;4939547;28;20442;-88
2021/07/03 13:06:27;;;;;;;4.90;4.60;;;27.10;63.40;;;;;;4936945;28;20469;-87
2021/07/03 13:08:54;;;;;;;4.37;4.03;;;27.90;58.90;;;;;;4953657;28;20548;-87
2021/07/03 13:11:24;;;;;;;5.20;4.80;;;28.50;58.30;;;;;;4936414;28;20457;-87
2021/07/03 13:13:50;;;;;;;5.00;4.60;;;28.60;56.40;;;;;;4937435;28;20461;-87
2021/07/03 13:16:16;;;;;;;5.07;4.67;;;29.00;55.10;;;;;;4931072;28;20810;-87
2021/07/03 13:18:41;;;;;;;4.43;4.13;;;29.10;61.70;;;;;;4933544;28;20450;-87
2021/07/03 13:21:07;;;;;;;4.10;3.80;;;29.30;55.50;;;;;;4952617;28;20820;-87
2021/07/03 13:23:34;;;;;;;4.70;4.30;;;28.90;55.80;;;;;;4947875;28;20219;-87
2021/07/03 13:26:01;;;;;;;4.40;4.10;;;29.40;56.10;;;;;;4950208;28;20190;-88
2021/07/03 13:28:27;;;;;;;5.17;4.80;;;28.00;56.10;;;;;;4950622;28;20447;-86
2021/07/03 13:30:52;;;;;;;5.17;4.77;;;28.10;56.40;;;;;;4948139;28;21013;-87
2021/07/03 13:33:18;;;;;;;4.37;4.07;;;27.70;57.50;;;;;;4934079;28;20198;-88
2021/07/03 13:35:44;;;;;;;4.83;4.50;;;29.40;62.10;;;;;;4936388;28;20214;-88
2021/07/03 13:38:09;;;;;;;4.10;3.80;;;30.60;57.50;;;;;;4934401;28;20214;-88
2021/07/03 13:40:35;;;;;;;4.63;4.33;;;31.10;55.50;;;;;;4938012;28;20254;-86
2021/07/03 13:43:01;;;;;;;5.03;4.73;;;30.90;58.10;;;;;;4929360;28;20199;-86
2021/07/03 13:45:27;;;;;;;5.00;4.60;;;32.10;50.50;;;;;;4933381;28;20548;-86
2021/07/03 13:47:53;;;;;;;4.33;4.03;;;34.10;46.70;;;;;;4948249;28;20191;-86
2021/07/03 13:50:19;;;;;;;4.77;4.47;;;34.80;47.90;;;;;;4933007;28;20225;-86
2021/07/03 13:52:44;;;;;;;5.17;4.80;;;33.40;49.40;;;;;;4946867;28;20184;-88
2021/07/03 13:55:11;;;;;;;4.63;4.33;;;32.70;52.80;;;;;;4937715;28;20336;-88
2021/07/03 13:57:37;;;;;;;4.87;4.47;;;33.40;49.60;;;;;;4948933;28;20194;-88
2021/07/03 14:00:08;;;;;;;4.27;4.00;;;34.20;46.40;;;;;;4933838;28;20451;-88
2021/07/03 14:02:34;;;;;;;5.27;4.93;;;38.10;40.40;;;;;;4953261;28;20434;-86
2021/07/03 14:05:00;;;;;;;4.80;3.90;;;38.40;40.90;;;;;;4938945;28;20994;-86
2021/07/03 14:07:26;;;;;;;5.63;4.90;;;37.50;38.50;;;;;;4937074;28;20179;-86
2021/07/03 14:09:51;;;;;;;4.63;4.33;;;35.30;39.70;;;;;;4941517;28;20560;-86
2021/07/03 14:12:17;;;;;;;4.70;4.40;;;34.40;46.00;;;;;;4941115;28;20184;-86
2021/07/03 14:14:43;;;;;;;4.67;4.37;;;34.30;43.50;;;;;;4936814;28;20187;-86
2021/07/03 14:17:09;;;;;;;5.30;4.93;;;33.30;43.80;;;;;;4942445;28;20668;-86
2021/07/03 14:19:35;;;;;;;6.00;5.60;;;31.40;45.20;;;;;;4953691;28;20699;-86
2021/07/03 14:22:00;;;;;;;5.83;5.43;;;30.10;49.10;;;;;;4955635;28;20183;-86
2021/07/03 14:24:26;;;;;;;5.20;4.80;;;30.70;53.90;;;;;;4936076;28;20199;-86
2021/07/03 14:26:52;;;;;;;5.20;4.70;;;31.20;53.60;;;;;;4950212;28;20193;-86
2021/07/03 14:29:18;;;;;;;5.97;4.97;;;31.10;52.20;;;;;;4933296;28;20279;-88
2021/07/03 14:31:45;;;;;;;5.00;4.67;;;30.10;53.70;;;;;;4952958;28;20184;-88
2021/07/03 14:34:11;;;;;;;5.03;4.63;;;29.30;56.30;;;;;;4939862;28;20227;-88
2021/07/03 14:36:36;;;;;;;5.07;4.73;;;28.90;57.70;;;;;;4936903;28;20638;-87
2021/07/03 14:39:04;;;;;;;5.47;4.97;;;28.70;60.70;;;;;;4952064;28;20556;-87
2021/07/03 14:41:30;;;;;;;5.07;4.63;;;29.10;58.70;;;;;;4953067;28;20291;-88
2021/07/03 14:43:55;;;;;;;5.17;4.77;;;29.30;59.90;;;;;;4950814;28;20484;-88
2021/07/03 14:46:21;;;;;;;4.67;4.37;;;29.40;57.40;;;;;;4956678;28;20424;-88
2021/07/03 14:48:47;;;;;;;4.83;4.53;;;29.80;57.00;;;;;;4938068;28;20194;-88
2021/07/03 14:51:13;;;;;;;4.83;4.40;;;31.20;52.20;;;;;;4936146;28;20313;-88
2021/07/03 14:53:39;;;;;;;4.97;4.67;;;31.90;54.90;;;;;;4953008;28;20533;-86
2021/07/03 14:56:06;;;;;;;6.10;5.60;;;31.70;55.90;;;;;;4937409;28;20542;-85
2021/07/03 14:58:32;;;;;;;4.67;4.37;;;30.80;56.80;;;;;;4936716;28;20615;-86
2021/07/03 15:00:57;;;;;;;4.77;4.37;;;29.90;60.20;;;;;;4937671;28;20459;-88
2021/07/03 15:03:35;;;;;;;5.33;4.80;;;29.20;61.20;;;;;;4940093;28;20458;-88
2021/07/03 15:06:01;;;;;;;5.60;5.20;;;28.20;58.50;;;;;;4938598;28;20501;-87
2021/07/03 15:08:27;;;;;;;5.57;5.17;;;27.80;61.00;;;;;;4936733;28;20597;-88
2021/07/03 15:10:52;;;;;;;5.10;4.70;;;27.70;65.60;;;;;;4937373;28;20318;-87
2021/07/03 15:13:18;;;;;;;5.20;4.80;;;27.50;66.90;;;;;;4933094;28;20213;-87
2021/07/03 15:15:44;;;;;;;5.50;5.10;;;27.40;66.40;;;;;;4942237;28;20191;-88
2021/07/03 15:18:09;;;;;;;5.07;4.77;;;27.40;67.50;;;;;;4939377;28;20190;-87
2021/07/03 15:20:35;;;;;;;5.10;4.70;;;27.10;71.90;;;;;;4929745;28;20193;-88
2021/07/03 15:23:01;;;;;;;4.77;4.37;;;26.80;72.40;;;;;;4949183;28;20192;-87
2021/07/03 15:25:27;;;;;;;5.47;5.07;;;26.60;66.10;;;;;;4937977;28;20599;-88